Nearby METAR Reports

 

KCFV - Coffeyville, Kansas, USA
Distance from station: ENE 93mi, 150km
Updated: Fri, 10-15-2021 11:52pm CDT
Clear
Clear
 Wind from WNW
Wind: WNW 6 mph , 9 km/h
Temperature: 50°F , 10°C
Wind Chill: 48°F , 9°C
Dew Point: 39°F , 4°C
Humidity: 67%
Barometer: 1023.7 hPa
Clouds: Clear
Visibility: 10 miles , 16 km
2021/10/16 04:52 KCFV 160452Z AUTO 29005KT 10SM CLR 10/04 A3023 RMK AO2 SLP236 T01000039
KIDP - Independence, Kansas, USA
Distance from station: NE 86mi, 138km
Updated: Sat, 10-16-2021 12:15am CDT
Clear
Clear
 Wind from WNW
Wind: WNW 8 mph , 13 km/h
Temperature: 46°F , 8°C
Wind Chill: 42°F , 6°C
Dew Point: 39°F , 4°C
Humidity: 76%
Barometer: 1024 hPa
Clouds: Clear
Visibility: 10 miles , 16 km
2021/10/16 05:15 KIDP 160515Z AUTO 29007KT 10SM CLR 08/04 A3024 RMK AO2 T00820036
KIAB - Mcconnell Afb, Kansas, USA
Distance from station: N 84mi, 135km
Updated: Fri, 10-15-2021 11:56pm CDT
Clear
Clear
 Wind from WNW
Wind: WNW 6 mph , 9 km/h
Temperature: 48°F , 9°C
Wind Chill: 45°F , 7°C
Dew Point: 37°F , 3°C
Humidity: 66%
Barometer: 1025.1 hPa
Clouds: Clear
Visibility: 10 miles , 16 km
2021/10/16 04:56 KIAB 160456Z AUTO 29005KT 10SM CLR 09/03 A3027 RMK AO2 SLP253 T00890033
 
KICT - Wichita, Kansas, USA
Distance from station: NNW 88mi, 142km
Updated: Fri, 10-15-2021 11:53pm CDT
Clear
Clear
 Wind from W
Wind: W 8 mph , 13 km/h
Temperature: 43°F , 6°C
Wind Chill: 38°F , 3°C
Dew Point: 37°F , 3°C
Humidity: 81%
Barometer: 1025.1 hPa
Clouds: Clear
Visibility: 10 miles , 16 km
2021/10/16 04:53 KICT 160453Z 27007KT 10SM CLR 06/03 A3027 RMK AO2 SLP251 T00610028
KAAO - Wichita/Jabara, Kansas, USA
Distance from station: N 93mi, 149km
Updated: Fri, 10-15-2021 11:54pm CDT
Clear
Clear
 Wind from WNW
Wind: WNW 8 mph , 13 km/h
Temperature: 48°F , 9°C
Wind Chill: 44°F , 7°C
Dew Point: 36°F , 2°C
Humidity: 62%
Barometer: 1024.7 hPa
Clouds: Clear
Visibility: 10 miles , 16 km
2021/10/16 04:54 KAAO 160454Z AUTO 29007KT 10SM CLR 09/02 A3026 RMK AO2 SLP249 T00890017
KWLD - Winfield/Arkansa, Kansas, USA
Distance from station: N 52mi, 84km
Updated: Fri, 10-15-2021 11:54pm CDT
Clear
Clear
 Wind from WNW
Wind: WNW 3 mph , 6 km/h
Temperature: 46°F , 8°C
Dew Point: 39°F , 4°C
Humidity: 76%
Barometer: 1025.4 hPa
Clouds: Clear
Visibility: 10 miles , 16 km
2021/10/16 04:54 KWLD 160454Z AUTO 29003KT 10SM CLR 08/04 A3028 RMK AO2 SLP253 T00780044
 
KAVK - Alva, Oklahoma, USA
Distance from station: WNW 94mi, 152km
Updated: Sat, 10-16-2021 12:15am CDT
Partly cloudy
Partly cloudy
 Wind from WNW
Wind: WNW 7 mph , 11 km/h
Temperature: 45°F , 7°C
Wind Chill: 41°F , 5°C
Dew Point: 37°F , 3°C
Humidity: 76%
Barometer: 1026.4 hPa
Clouds: Partly cloudy
Visibility: 10 miles , 16 km
Cloud details: Few Clouds 3500 ft
Partly cloudy 4700 ft
2021/10/16 05:15 KAVK 160515Z AUTO 30006KT 10SM FEW035 SCT047 07/03 A3031 RMK AO2
KBVO - Bartlesville, Oklahoma, USA
Distance from station: ENE 61mi, 98km
Updated: Fri, 10-15-2021 11:53pm CDT
Clear
Clear
 Wind from calm
Wind: Calm
Temperature: 46°F , 8°C
Dew Point: 39°F , 4°C
Humidity: 76%
Barometer: 1024.7 hPa
Clouds: Clear
Visibility: 10 miles , 16 km
2021/10/16 04:53 KBVO 160453Z AUTO 00000KT 10SM CLR 08/04 A3026 RMK AO2 SLP242 T00830044
KBKN - Blackwell, Oklahoma, USA
Distance from station: NW 29mi, 47km
Updated: Sat, 10-16-2021 12:35am CDT
Clear
Clear
 Wind from W
Wind: W 8 mph , 13 km/h
Barometer: 1025.4 hPa
Clouds: Clear
Visibility: 10 miles , 16 km
2021/10/16 05:35 KBKN 160535Z AUTO 27007KT 10SM CLR A3028 RMK AO2 LTG DSNT N
 
KGCM - Claremore, Oklahoma, USA
Distance from station: E 86mi, 138km
Updated: Sat, 10-16-2021 12:15am CDT
Clear
Clear
 Wind from calm
Wind: Calm
Temperature: 48°F , 9°C
Dew Point: 41°F , 5°C
Humidity: 76%
Barometer: 1024.7 hPa
Clouds: Clear
Visibility: 10 miles , 16 km
2021/10/16 05:15 KGCM 160515Z AUTO 00000KT 10SM CLR 09/05 A3026 RMK AO2
KCQB - Chandler, Oklahoma, USA
Distance from station: SSE 50mi, 80km
Updated: Fri, 10-15-2021 5:35pm CDT
NOT Current
Clear
Clear
 Wind from NNW
Wind: NNW 18 mph , 30 km/h
Temperature: 64°F , 18°C
Dew Point: 41°F , 5°C
Humidity: 43%
Barometer: 1021.7 hPa
Clouds: Clear
Visibility: 10 miles , 16 km
2021/10/15 22:35 KCQB 152235Z AUTO 33016KT 10SM CLR 18/05 A3017 RMK AO2 T01830045
KCUH - Cushing, Oklahoma, USA
Distance from station: SSE 35mi, 57km
Updated: Sat, 10-16-2021 12:15am CDT
Clear
Clear
 Wind from calm
Wind: Calm
Temperature: 50°F , 10°C
Dew Point: 41°F , 5°C
Humidity: 71%
Barometer: 1025.1 hPa
Clouds: Clear
Visibility: 10 miles , 16 km
2021/10/16 05:15 KCUH 160515Z AUTO 00000KT 10SM CLR 10/05 A3027 RMK AO2 T01000048
 
KRQO - El Reno Muni, Oklahoma, USA
Distance from station: SW 85mi, 137km
Updated: Sat, 10-16-2021 12:15am CDT
Clear
Clear
 Wind from calm
Wind: Calm
Temperature: 45°F , 7°C
Dew Point: 41°F , 5°C
Humidity: 87%
Barometer: 1026.4 hPa
Clouds: Clear
Visibility: 10 miles , 16 km
2021/10/16 05:15 KRQO 160515Z AUTO 00000KT 10SM CLR 07/05 A3031 RMK AO2 P0001 T00750050
KEND - Enid/Vance Afb, Oklahoma, USA
Distance from station: W 50mi, 81km
Updated: Fri, 10-15-2021 11:56pm CDT
Clear
Clear
 Wind from NW
Wind: NW 3 mph , 6 km/h
Temperature: 46°F , 8°C
Dew Point: 39°F , 4°C
Humidity: 76%
Barometer: 1025.4 hPa
Clouds: Clear
Visibility: 10 miles , 16 km
2021/10/16 04:56 KEND 160456Z AUTO 31003KT 10SM CLR 08/04 A3028 RMK AO2 SLP254 T00820038 $
KWDG - Enid/Woodring, Oklahoma, USA
Distance from station: W 42mi, 67km
Updated: Sat, 10-16-2021 12:15am CDT
Clear
Clear
 Wind from NW
Wind: NW 3 mph , 6 km/h
Temperature: 45°F , 7°C
Dew Point: 41°F , 5°C
Humidity: 87%
Barometer: 1025.4 hPa
Clouds: Clear
Visibility: 10 miles , 16 km
2021/10/16 05:15 KWDG 160515Z AUTO 31003KT 10SM CLR 07/05 A3028 RMK AO2
 
KGOK - Guthrie, Oklahoma, USA
Distance from station: SSW 44mi, 71km
Updated: Fri, 10-15-2021 11:53pm CDT
Clear
Clear
 Wind from calm
Wind: Calm
Temperature: 45°F , 7°C
Dew Point: 43°F , 6°C
Humidity: 93%
Barometer: 1025.7 hPa
Clouds: Clear
Visibility: 10 miles , 16 km
2021/10/16 04:53 KGOK 160453Z AUTO 00000KT 10SM CLR 07/06 A3029 RMK AO2 SLP259 T00670061
KOUN - Norman/Westheime, Oklahoma, USA
Distance from station: SSW 84mi, 136km
Updated: Sat, 10-16-2021 12:15am CDT
Clear
Clear
 Wind from NNW
Wind: NNW 6 mph , 9 km/h
Temperature: 52°F , 11°C
Dew Point: 39°F , 4°C
Humidity: 62%
Barometer: 1025.4 hPa
Clouds: Clear
Visibility: 10 miles , 16 km
2021/10/16 05:15 KOUN 160515Z AUTO 34005KT 10SM CLR 11/04 A3028 RMK AO2 T01080044
KOKC - Oklahoma City, Oklahoma, USA
Distance from station: SSW 78mi, 126km
Updated: Fri, 10-15-2021 11:52pm CDT
Clear
Clear
 Wind from NNW
Wind: NNW 5 mph , 7 km/h
Temperature: 52°F , 11°C
Dew Point: 39°F , 4°C
Humidity: 62%
Barometer: 1025.7 hPa
Clouds: Clear
Visibility: 10 miles , 16 km
2021/10/16 04:52 KOKC 160452Z 33004KT 10SM CLR 11/04 A3029 RMK AO2 SLP254 T01060039
 
KPWA - Okla City/Wiley, Oklahoma, USA
Distance from station: SSW 70mi, 113km
Updated: Fri, 10-15-2021 11:53pm CDT
Clear
Clear
 Wind from NW
Wind: NW 3 mph , 6 km/h
Temperature: 52°F , 11°C
Dew Point: 39°F , 4°C
Humidity: 62%
Barometer: 1025.7 hPa
Clouds: Clear
Visibility: 10 miles , 16 km
2021/10/16 04:53 KPWA 160453Z AUTO 31003KT 10SM CLR 11/04 A3029 RMK AO2 SLP253 T01060044
KRCE - Okla City/Page, Oklahoma, USA
Distance from station: SW 78mi, 126km
Updated: Sat, 10-16-2021 12:35am CDT
Clear
Clear
 Wind from calm
Wind: Calm
Temperature: 46°F , 8°C
Dew Point: 41°F , 5°C
Humidity: 82%
Barometer: 1026.1 hPa
Clouds: Clear
Visibility: 10 miles , 16 km
2021/10/16 05:35 KRCE 160535Z AUTO 00000KT 10SM CLR 08/05 A3030 RMK AO2
KOKM - Okmulgee, Oklahoma, USA
Distance from station: SE 79mi, 127km
Updated: Sat, 10-16-2021 12:15am CDT
Clear
Clear
 Wind from NNW
Wind: NNW 6 mph , 9 km/h
Temperature: 54°F , 12°C
Dew Point: 41°F , 5°C
Humidity: 63%
Barometer: 1024.7 hPa
Clouds: Clear
Visibility: 10 miles , 16 km
2021/10/16 05:15 KOKM 160515Z AUTO 33005KT 10SM CLR 12/05 A3026 RMK AO2 T01150049
 
KPNC - Ponca City, Oklahoma, USA
Distance from station: N 22mi, 36km
Updated: Fri, 10-15-2021 11:53pm CDT
Clear
Clear
 Wind from calm
Wind: Calm
Temperature: 46°F , 8°C
Dew Point: 39°F , 4°C
Humidity: 76%
Barometer: 1025.1 hPa
Clouds: Clear
Visibility: 10 miles , 16 km
2021/10/16 04:53 KPNC 160453Z AUTO 00000KT 10SM CLR 08/04 A3027 RMK AO2 SLP250 T00830044 $
KSNL - Shawnee, Oklahoma, USA
Distance from station: S 74mi, 119km
Updated: Sat, 10-16-2021 12:15am CDT
Clear
Clear
 Wind from N
Wind: N 9 mph , 15 km/h
Temperature: 50°F , 10°C
Wind Chill: 46°F , 8°C
Dew Point: 37°F , 3°C
Humidity: 62%
Barometer: 1025.4 hPa
Clouds: Clear
Visibility: 10 miles , 16 km
2021/10/16 05:15 KSNL 160515Z AUTO 35008KT 10SM CLR 10/03 A3028 RMK AO2 T01010031
KSWO - Stillwater, Oklahoma, USA
Distance from station: S 17mi, 28km
Updated: Fri, 10-15-2021 11:53pm CDT
Clear
Clear
 Wind from NNW
Wind: NNW 3 mph , 6 km/h
Temperature: 50°F , 10°C
Dew Point: 41°F , 5°C
Humidity: 71%
Barometer: 1025.4 hPa
Clouds: Clear
Visibility: 10 miles , 16 km
2021/10/16 04:53 KSWO 160453Z AUTO 33003KT 10SM CLR 10/05 A3028 RMK AO2 SLP247 T01000050
 
KTIK - Tinker Afb, Oklahoma, USA
Distance from station: SSW 72mi, 115km
Updated: Fri, 10-15-2021 11:56pm CDT
Clear
Clear
 Wind from N
Wind: N 6 mph , 9 km/h
Temperature: 52°F , 11°C
Dew Point: 41°F , 5°C
Humidity: 67%
Barometer: 1025.1 hPa
Clouds: Clear
Visibility: 8 miles , 13 km
2021/10/16 04:56 KTIK 160456Z AUTO 35005KT 8SM CLR 11/05 A3027 RMK AO2 VIS 2 1/2 RWY13 SLP256 T01080045
KTUL - Tulsa, Oklahoma, USA
Distance from station: ESE 65mi, 105km
Updated: Fri, 10-15-2021 11:53pm CDT
Clear
Clear
 Wind from NW
Wind: NW 5 mph , 7 km/h
Temperature: 50°F , 10°C
Wind Chill: 48°F , 9°C
Dew Point: 43°F , 6°C
Humidity: 76%
Barometer: 1024 hPa
Clouds: Clear
Visibility: 10 miles , 16 km
2021/10/16 04:53 KTUL 160453Z 31004KT 10SM CLR 10/06 A3024 RMK AO2 SLP237 T01000056